sensor_id;sensor_type;location;lat;lon;timestamp;P1;durP1;ratioP1;P2;durP2;ratioP2
3953;SDS011;1991;48.682;9.030;2023-06-22T00:00:29;9.68;;;8.32;;
3953;SDS011;1991;48.682;9.030;2023-06-22T00:02:54;9.15;;;8.20;;
3953;SDS011;1991;48.682;9.030;2023-06-22T00:05:20;10.95;;;8.18;;
3953;SDS011;1991;48.682;9.030;2023-06-22T00:07:46;12.10;;;8.57;;
3953;SDS011;1991;48.682;9.030;2023-06-22T00:10:11;12.23;;;8.85;;
3953;SDS011;1991;48.682;9.030;2023-06-22T00:12:37;12.20;;;8.50;;
3953;SDS011;1991;48.682;9.030;2023-06-22T00:15:03;10.15;;;8.05;;
3953;SDS011;1991;48.682;9.030;2023-06-22T00:17:28;11.70;;;8.65;;
3953;SDS011;1991;48.682;9.030;2023-06-22T00:19:54;12.40;;;8.70;;
3953;SDS011;1991;48.682;9.030;2023-06-22T00:22:20;11.07;;;8.65;;
3953;SDS011;1991;48.682;9.030;2023-06-22T00:24:53;10.15;;;8.55;;
3953;SDS011;1991;48.682;9.030;2023-06-22T00:27:21;11.70;;;8.75;;
3953;SDS011;1991;48.682;9.030;2023-06-22T00:29:47;10.88;;;8.93;;
3953;SDS011;1991;48.682;9.030;2023-06-22T00:32:12;11.88;;;8.73;;
3953;SDS011;1991;48.682;9.030;2023-06-22T00:34:38;11.07;;;8.45;;
3953;SDS011;1991;48.682;9.030;2023-06-22T00:37:03;13.65;;;8.57;;
3953;SDS011;1991;48.682;9.030;2023-06-22T00:39:29;8.88;;;7.82;;
3953;SDS011;1991;48.682;9.030;2023-06-22T00:41:55;10.73;;;8.65;;
3953;SDS011;1991;48.682;9.030;2023-06-22T00:44:20;11.70;;;8.75;;
3953;SDS011;1991;48.682;9.030;2023-06-22T00:46:46;9.70;;;8.57;;
3953;SDS011;1991;48.682;9.030;2023-06-22T00:49:13;10.93;;;8.90;;
3953;SDS011;1991;48.682;9.030;2023-06-22T00:51:38;9.70;;;8.65;;
3953;SDS011;1991;48.682;9.030;2023-06-22T00:54:12;10.10;;;9.00;;
3953;SDS011;1991;48.682;9.030;2023-06-22T00:56:39;9.93;;;8.93;;
3953;SDS011;1991;48.682;9.030;2023-06-22T00:59:08;10.63;;;9.27;;
3953;SDS011;1991;48.682;9.030;2023-06-22T01:01:37;12.75;;;8.68;;
3953;SDS011;1991;48.682;9.030;2023-06-22T01:04:06;13.73;;;8.40;;
3953;SDS011;1991;48.682;9.030;2023-06-22T01:06:35;10.20;;;8.10;;
3953;SDS011;1991;48.682;9.030;2023-06-22T01:09:19;12.52;;;8.48;;
3953;SDS011;1991;48.682;9.030;2023-06-22T01:11:54;10.43;;;8.73;;
3953;SDS011;1991;48.682;9.030;2023-06-22T01:14:28;9.45;;;8.10;;
3953;SDS011;1991;48.682;9.030;2023-06-22T01:17:08;11.30;;;8.38;;
3953;SDS011;1991;48.682;9.030;2023-06-22T01:22:21;12.65;;;8.55;;
3953;SDS011;1991;48.682;9.030;2023-06-22T01:27:56;12.00;;;8.13;;
3953;SDS011;1991;48.682;9.030;2023-06-22T01:30:27;11.90;;;8.57;;
3953;SDS011;1991;48.682;9.030;2023-06-22T01:32:54;11.02;;;8.20;;
3953;SDS011;1991;48.682;9.030;2023-06-22T01:35:21;12.45;;;8.35;;
3953;SDS011;1991;48.682;9.030;2023-06-22T01:37:48;8.77;;;7.88;;
3953;SDS011;1991;48.682;9.030;2023-06-22T01:40:14;10.82;;;9.23;;
3953;SDS011;1991;48.682;9.030;2023-06-22T01:42:41;12.90;;;8.60;;
3953;SDS011;1991;48.682;9.030;2023-06-22T01:45:08;9.90;;;8.63;;
3953;SDS011;1991;48.682;9.030;2023-06-22T01:47:36;10.77;;;8.30;;
3953;SDS011;1991;48.682;9.030;2023-06-22T01:50:02;13.60;;;9.23;;
3953;SDS011;1991;48.682;9.030;2023-06-22T01:52:28;10.00;;;8.50;;
3953;SDS011;1991;48.682;9.030;2023-06-22T01:54:54;10.65;;;8.30;;
3953;SDS011;1991;48.682;9.030;2023-06-22T01:57:19;10.77;;;7.88;;
3953;SDS011;1991;48.682;9.030;2023-06-22T01:59:52;9.82;;;8.82;;
3953;SDS011;1991;48.682;9.030;2023-06-22T02:02:24;10.80;;;9.35;;
3953;SDS011;1991;48.682;9.030;2023-06-22T02:04:56;10.45;;;8.70;;
3953;SDS011;1991;48.682;9.030;2023-06-22T02:07:29;9.90;;;8.43;;
3953;SDS011;1991;48.682;9.030;2023-06-22T02:09:58;12.52;;;9.25;;
3953;SDS011;1991;48.682;9.030;2023-06-22T02:12:26;12.38;;;8.60;;
3953;SDS011;1991;48.682;9.030;2023-06-22T02:14:54;10.85;;;8.48;;
3953;SDS011;1991;48.682;9.030;2023-06-22T02:17:20;10.32;;;9.27;;
3953;SDS011;1991;48.682;9.030;2023-06-22T02:19:46;11.05;;;8.43;;
3953;SDS011;1991;48.682;9.030;2023-06-22T02:22:11;9.57;;;7.60;;
3953;SDS011;1991;48.682;9.030;2023-06-22T02:24:40;10.88;;;8.00;;
3953;SDS011;1991;48.682;9.030;2023-06-22T02:27:05;8.60;;;7.68;;
3953;SDS011;1991;48.682;9.030;2023-06-22T02:29:32;9.52;;;7.85;;
3953;SDS011;1991;48.682;9.030;2023-06-22T02:31:58;11.70;;;8.18;;
3953;SDS011;1991;48.682;9.030;2023-06-22T02:34:23;10.25;;;7.80;;
3953;SDS011;1991;48.682;9.030;2023-06-22T02:36:49;11.07;;;8.77;;
3953;SDS011;1991;48.682;9.030;2023-06-22T02:41:51;11.77;;;8.77;;
3953;SDS011;1991;48.682;9.030;2023-06-22T02:44:18;11.13;;;8.98;;
3953;SDS011;1991;48.682;9.030;2023-06-22T02:46:43;10.48;;;7.65;;
3953;SDS011;1991;48.682;9.030;2023-06-22T02:49:10;10.38;;;7.53;;
3953;SDS011;1991;48.682;9.030;2023-06-22T02:51:37;9.52;;;7.80;;
3953;SDS011;1991;48.682;9.030;2023-06-22T02:54:04;9.40;;;7.88;;
3953;SDS011;1991;48.682;9.030;2023-06-22T02:56:31;8.55;;;7.53;;
3953;SDS011;1991;48.682;9.030;2023-06-22T02:58:56;10.82;;;8.45;;
3953;SDS011;1991;48.682;9.030;2023-06-22T03:01:29;12.63;;;8.57;;
3953;SDS011;1991;48.682;9.030;2023-06-22T03:03:56;9.38;;;7.75;;
3953;SDS011;1991;48.682;9.030;2023-06-22T03:06:22;10.13;;;8.18;;
3953;SDS011;1991;48.682;9.030;2023-06-22T03:08:48;13.55;;;8.82;;
3953;SDS011;1991;48.682;9.030;2023-06-22T03:11:16;14.50;;;7.80;;
3953;SDS011;1991;48.682;9.030;2023-06-22T03:13:42;10.48;;;8.15;;
3953;SDS011;1991;48.682;9.030;2023-06-22T03:16:08;8.93;;;7.45;;
3953;SDS011;1991;48.682;9.030;2023-06-22T03:18:33;10.73;;;7.93;;
3953;SDS011;1991;48.682;9.030;2023-06-22T03:20:59;12.60;;;8.77;;
3953;SDS011;1991;48.682;9.030;2023-06-22T03:23:27;12.68;;;8.35;;
3953;SDS011;1991;48.682;9.030;2023-06-22T03:25:52;11.50;;;7.97;;
3953;SDS011;1991;48.682;9.030;2023-06-22T03:28:20;11.10;;;8.27;;
3953;SDS011;1991;48.682;9.030;2023-06-22T03:30:46;8.20;;;7.40;;
3953;SDS011;1991;48.682;9.030;2023-06-22T03:33:12;9.65;;;7.28;;
3953;SDS011;1991;48.682;9.030;2023-06-22T03:35:37;11.77;;;8.05;;
3953;SDS011;1991;48.682;9.030;2023-06-22T03:38:03;9.45;;;6.53;;
3953;SDS011;1991;48.682;9.030;2023-06-22T03:40:29;10.77;;;7.85;;
3953;SDS011;1991;48.682;9.030;2023-06-22T03:42:55;9.23;;;7.63;;
3953;SDS011;1991;48.682;9.030;2023-06-22T03:45:20;9.50;;;8.50;;
3953;SDS011;1991;48.682;9.030;2023-06-22T03:47:46;10.20;;;8.32;;
3953;SDS011;1991;48.682;9.030;2023-06-22T03:50:11;9.07;;;8.18;;
3953;SDS011;1991;48.682;9.030;2023-06-22T03:52:38;11.60;;;8.65;;
3953;SDS011;1991;48.682;9.030;2023-06-22T03:55:05;16.50;;;8.70;;
3953;SDS011;1991;48.682;9.030;2023-06-22T03:57:31;10.38;;;8.38;;
3953;SDS011;1991;48.682;9.030;2023-06-22T03:59:57;10.43;;;9.43;;
3953;SDS011;1991;48.682;9.030;2023-06-22T04:02:23;9.73;;;8.73;;
3953;SDS011;1991;48.682;9.030;2023-06-22T04:04:49;11.45;;;7.95;;
3953;SDS011;1991;48.682;9.030;2023-06-22T04:07:14;11.55;;;8.35;;
3953;SDS011;1991;48.682;9.030;2023-06-22T04:09:40;9.57;;;8.57;;
3953;SDS011;1991;48.682;9.030;2023-06-22T04:12:05;12.70;;;8.07;;
3953;SDS011;1991;48.682;9.030;2023-06-22T04:14:31;10.38;;;8.20;;
3953;SDS011;1991;48.682;9.030;2023-06-22T04:16:57;12.38;;;8.05;;
3953;SDS011;1991;48.682;9.030;2023-06-22T04:19:23;11.65;;;8.68;;
3953;SDS011;1991;48.682;9.030;2023-06-22T04:21:49;13.10;;;9.55;;
3953;SDS011;1991;48.682;9.030;2023-06-22T04:24:14;9.73;;;8.60;;
3953;SDS011;1991;48.682;9.030;2023-06-22T04:26:40;11.80;;;8.63;;
3953;SDS011;1991;48.682;9.030;2023-06-22T04:29:07;11.40;;;8.35;;
3953;SDS011;1991;48.682;9.030;2023-06-22T04:31:36;9.57;;;7.97;;
3953;SDS011;1991;48.682;9.030;2023-06-22T04:34:02;10.02;;;7.82;;
3953;SDS011;1991;48.682;9.030;2023-06-22T04:36:35;11.18;;;8.05;;
3953;SDS011;1991;48.682;9.030;2023-06-22T04:39:09;9.23;;;8.20;;
3953;SDS011;1991;48.682;9.030;2023-06-22T04:41:36;9.13;;;8.23;;
3953;SDS011;1991;48.682;9.030;2023-06-22T04:44:09;11.48;;;7.55;;
3953;SDS011;1991;48.682;9.030;2023-06-22T04:46:39;11.20;;;7.55;;
3953;SDS011;1991;48.682;9.030;2023-06-22T04:49:06;12.63;;;8.18;;
3953;SDS011;1991;48.682;9.030;2023-06-22T04:51:39;11.55;;;8.02;;
3953;SDS011;1991;48.682;9.030;2023-06-22T04:54:06;9.60;;;8.13;;
3953;SDS011;1991;48.682;9.030;2023-06-22T04:56:32;11.27;;;8.05;;
3953;SDS011;1991;48.682;9.030;2023-06-22T04:58:58;9.60;;;8.07;;
3953;SDS011;1991;48.682;9.030;2023-06-22T05:01:24;9.63;;;7.75;;
3953;SDS011;1991;48.682;9.030;2023-06-22T05:03:50;13.75;;;7.70;;
3953;SDS011;1991;48.682;9.030;2023-06-22T05:06:20;10.95;;;7.43;;
3953;SDS011;1991;48.682;9.030;2023-06-22T05:08:49;10.57;;;8.43;;
3953;SDS011;1991;48.682;9.030;2023-06-22T05:11:25;13.95;;;7.82;;
3953;SDS011;1991;48.682;9.030;2023-06-22T05:13:53;9.18;;;7.90;;
3953;SDS011;1991;48.682;9.030;2023-06-22T05:16:20;9.95;;;8.23;;
3953;SDS011;1991;48.682;9.030;2023-06-22T05:18:51;9.38;;;6.85;;
3953;SDS011;1991;48.682;9.030;2023-06-22T05:21:18;8.80;;;6.78;;
3953;SDS011;1991;48.682;9.030;2023-06-22T05:23:44;16.15;;;7.07;;
3953;SDS011;1991;48.682;9.030;2023-06-22T05:26:09;8.75;;;6.88;;
3953;SDS011;1991;48.682;9.030;2023-06-22T05:28:35;10.15;;;7.00;;
3953;SDS011;1991;48.682;9.030;2023-06-22T05:31:00;8.85;;;6.60;;
3953;SDS011;1991;48.682;9.030;2023-06-22T05:33:26;9.20;;;6.50;;
3953;SDS011;1991;48.682;9.030;2023-06-22T05:35:52;8.27;;;6.60;;
3953;SDS011;1991;48.682;9.030;2023-06-22T05:38:17;12.43;;;6.35;;
3953;SDS011;1991;48.682;9.030;2023-06-22T05:40:43;9.27;;;6.60;;
3953;SDS011;1991;48.682;9.030;2023-06-22T05:43:08;8.93;;;6.72;;
3953;SDS011;1991;48.682;9.030;2023-06-22T05:45:34;11.57;;;6.28;;
3953;SDS011;1991;48.682;9.030;2023-06-22T05:47:59;7.65;;;6.15;;
3953;SDS011;1991;48.682;9.030;2023-06-22T05:50:26;7.15;;;5.97;;
3953;SDS011;1991;48.682;9.030;2023-06-22T05:52:52;9.10;;;6.15;;
3953;SDS011;1991;48.682;9.030;2023-06-22T05:55:17;8.10;;;5.82;;
3953;SDS011;1991;48.682;9.030;2023-06-22T05:57:44;8.23;;;5.82;;
3953;SDS011;1991;48.682;9.030;2023-06-22T06:00:09;7.68;;;5.95;;
3953;SDS011;1991;48.682;9.030;2023-06-22T06:02:36;6.75;;;5.50;;
3953;SDS011;1991;48.682;9.030;2023-06-22T06:05:08;8.57;;;5.90;;
3953;SDS011;1991;48.682;9.030;2023-06-22T06:07:38;7.53;;;6.13;;
3953;SDS011;1991;48.682;9.030;2023-06-22T06:10:04;8.10;;;5.85;;
3953;SDS011;1991;48.682;9.030;2023-06-22T06:12:31;8.98;;;5.90;;
3953;SDS011;1991;48.682;9.030;2023-06-22T06:14:56;7.63;;;5.70;;
3953;SDS011;1991;48.682;9.030;2023-06-22T06:17:22;9.90;;;5.85;;
3953;SDS011;1991;48.682;9.030;2023-06-22T06:19:47;9.80;;;5.57;;
3953;SDS011;1991;48.682;9.030;2023-06-22T06:22:13;10.38;;;5.93;;
3953;SDS011;1991;48.682;9.030;2023-06-22T06:24:39;8.65;;;5.82;;
3953;SDS011;1991;48.682;9.030;2023-06-22T06:27:04;7.78;;;5.47;;
3953;SDS011;1991;48.682;9.030;2023-06-22T06:29:30;9.30;;;6.10;;
3953;SDS011;1991;48.682;9.030;2023-06-22T06:31:57;8.73;;;5.85;;
3953;SDS011;1991;48.682;9.030;2023-06-22T06:34:22;7.28;;;5.00;;
3953;SDS011;1991;48.682;9.030;2023-06-22T06:36:48;10.52;;;5.57;;
3953;SDS011;1991;48.682;9.030;2023-06-22T06:39:13;8.50;;;5.35;;
3953;SDS011;1991;48.682;9.030;2023-06-22T06:41:39;8.27;;;5.40;;
3953;SDS011;1991;48.682;9.030;2023-06-22T06:44:04;8.20;;;5.13;;
3953;SDS011;1991;48.682;9.030;2023-06-22T06:46:30;6.82;;;5.07;;
3953;SDS011;1991;48.682;9.030;2023-06-22T06:48:56;8.65;;;5.45;;
3953;SDS011;1991;48.682;9.030;2023-06-22T06:51:21;7.22;;;4.82;;
3953;SDS011;1991;48.682;9.030;2023-06-22T06:53:47;9.63;;;5.50;;
3953;SDS011;1991;48.682;9.030;2023-06-22T06:56:12;6.82;;;4.47;;
3953;SDS011;1991;48.682;9.030;2023-06-22T06:58:40;9.00;;;5.07;;
3953;SDS011;1991;48.682;9.030;2023-06-22T07:01:07;8.85;;;4.85;;
3953;SDS011;1991;48.682;9.030;2023-06-22T07:03:33;8.25;;;4.40;;
3953;SDS011;1991;48.682;9.030;2023-06-22T07:05:58;8.25;;;4.60;;
3953;SDS011;1991;48.682;9.030;2023-06-22T07:08:24;9.75;;;5.20;;
3953;SDS011;1991;48.682;9.030;2023-06-22T07:10:50;6.78;;;4.82;;
3953;SDS011;1991;48.682;9.030;2023-06-22T07:13:17;10.68;;;5.25;;
3953;SDS011;1991;48.682;9.030;2023-06-22T07:15:42;11.85;;;5.07;;
3953;SDS011;1991;48.682;9.030;2023-06-22T07:18:08;9.13;;;4.65;;
3953;SDS011;1991;48.682;9.030;2023-06-22T07:20:33;10.23;;;5.65;;
3953;SDS011;1991;48.682;9.030;2023-06-22T07:22:59;10.02;;;4.72;;
3953;SDS011;1991;48.682;9.030;2023-06-22T07:25:25;9.52;;;4.60;;
3953;SDS011;1991;48.682;9.030;2023-06-22T07:28:03;8.77;;;4.68;;
3953;SDS011;1991;48.682;9.030;2023-06-22T07:30:30;11.07;;;5.28;;
3953;SDS011;1991;48.682;9.030;2023-06-22T07:32:57;11.48;;;5.20;;
3953;SDS011;1991;48.682;9.030;2023-06-22T07:35:23;11.90;;;5.47;;
3953;SDS011;1991;48.682;9.030;2023-06-22T07:37:49;13.05;;;5.50;;
3953;SDS011;1991;48.682;9.030;2023-06-22T07:40:15;10.48;;;4.93;;
3953;SDS011;1991;48.682;9.030;2023-06-22T07:42:41;10.30;;;5.40;;
3953;SDS011;1991;48.682;9.030;2023-06-22T07:45:07;9.50;;;4.78;;
3953;SDS011;1991;48.682;9.030;2023-06-22T07:47:33;8.50;;;5.45;;
3953;SDS011;1991;48.682;9.030;2023-06-22T07:50:00;8.88;;;4.93;;
3953;SDS011;1991;48.682;9.030;2023-06-22T07:52:27;10.48;;;5.45;;
3953;SDS011;1991;48.682;9.030;2023-06-22T07:54:53;10.25;;;5.05;;
3953;SDS011;1991;48.682;9.030;2023-06-22T07:57:19;8.80;;;5.40;;
3953;SDS011;1991;48.682;9.030;2023-06-22T07:59:45;10.00;;;5.57;;
3953;SDS011;1991;48.682;9.030;2023-06-22T08:02:11;10.77;;;5.47;;
3953;SDS011;1991;48.682;9.030;2023-06-22T08:04:37;11.90;;;5.03;;
3953;SDS011;1991;48.682;9.030;2023-06-22T08:07:03;10.32;;;4.72;;
3953;SDS011;1991;48.682;9.030;2023-06-22T08:09:30;11.18;;;4.85;;
3953;SDS011;1991;48.682;9.030;2023-06-22T08:11:57;11.18;;;5.80;;
3953;SDS011;1991;48.682;9.030;2023-06-22T08:14:23;11.07;;;4.80;;
3953;SDS011;1991;48.682;9.030;2023-06-22T08:16:50;12.68;;;6.32;;
3953;SDS011;1991;48.682;9.030;2023-06-22T08:19:16;12.30;;;5.28;;
3953;SDS011;1991;48.682;9.030;2023-06-22T08:21:42;9.40;;;5.85;;
3953;SDS011;1991;48.682;9.030;2023-06-22T08:24:07;10.82;;;5.72;;
3953;SDS011;1991;48.682;9.030;2023-06-22T08:26:33;10.90;;;5.43;;
3953;SDS011;1991;48.682;9.030;2023-06-22T08:29:02;9.45;;;5.60;;
3953;SDS011;1991;48.682;9.030;2023-06-22T08:31:28;9.77;;;5.35;;
3953;SDS011;1991;48.682;9.030;2023-06-22T08:33:55;9.95;;;5.57;;
3953;SDS011;1991;48.682;9.030;2023-06-22T08:36:21;8.70;;;5.97;;
3953;SDS011;1991;48.682;9.030;2023-06-22T08:38:46;11.70;;;5.40;;
3953;SDS011;1991;48.682;9.030;2023-06-22T08:41:16;8.50;;;5.57;;
3953;SDS011;1991;48.682;9.030;2023-06-22T08:43:42;12.38;;;6.20;;
3953;SDS011;1991;48.682;9.030;2023-06-22T08:46:09;10.18;;;5.40;;
3953;SDS011;1991;48.682;9.030;2023-06-22T08:48:35;9.25;;;5.85;;
3953;SDS011;1991;48.682;9.030;2023-06-22T08:51:01;9.13;;;5.07;;
3953;SDS011;1991;48.682;9.030;2023-06-22T08:53:27;10.10;;;5.80;;
3953;SDS011;1991;48.682;9.030;2023-06-22T08:55:53;12.48;;;5.78;;
3953;SDS011;1991;48.682;9.030;2023-06-22T08:58:18;9.88;;;5.68;;
3953;SDS011;1991;48.682;9.030;2023-06-22T09:00:46;10.05;;;5.38;;
3953;SDS011;1991;48.682;9.030;2023-06-22T09:03:12;11.90;;;5.10;;
3953;SDS011;1991;48.682;9.030;2023-06-22T09:05:37;11.65;;;5.85;;
3953;SDS011;1991;48.682;9.030;2023-06-22T09:08:03;9.55;;;5.72;;
3953;SDS011;1991;48.682;9.030;2023-06-22T09:10:29;12.30;;;5.90;;
3953;SDS011;1991;48.682;9.030;2023-06-22T09:12:54;13.07;;;5.88;;
3953;SDS011;1991;48.682;9.030;2023-06-22T09:15:20;10.30;;;5.32;;
3953;SDS011;1991;48.682;9.030;2023-06-22T09:17:46;10.85;;;6.32;;
3953;SDS011;1991;48.682;9.030;2023-06-22T09:20:11;10.70;;;5.75;;
3953;SDS011;1991;48.682;9.030;2023-06-22T09:22:37;14.85;;;6.03;;
3953;SDS011;1991;48.682;9.030;2023-06-22T09:25:03;13.00;;;6.55;;
3953;SDS011;1991;48.682;9.030;2023-06-22T09:27:30;8.80;;;6.18;;
3953;SDS011;1991;48.682;9.030;2023-06-22T09:29:55;11.18;;;6.28;;
3953;SDS011;1991;48.682;9.030;2023-06-22T09:32:23;13.50;;;6.65;;
3953;SDS011;1991;48.682;9.030;2023-06-22T09:34:49;11.23;;;6.00;;
3953;SDS011;1991;48.682;9.030;2023-06-22T09:37:15;16.08;;;6.20;;
3953;SDS011;1991;48.682;9.030;2023-06-22T09:39:40;12.27;;;6.38;;
3953;SDS011;1991;48.682;9.030;2023-06-22T09:42:06;11.93;;;6.10;;
3953;SDS011;1991;48.682;9.030;2023-06-22T09:44:32;11.15;;;6.22;;
3953;SDS011;1991;48.682;9.030;2023-06-22T09:46:57;11.70;;;5.55;;
3953;SDS011;1991;48.682;9.030;2023-06-22T09:49:23;7.47;;;5.50;;
3953;SDS011;1991;48.682;9.030;2023-06-22T09:51:49;13.32;;;5.93;;
3953;SDS011;1991;48.682;9.030;2023-06-22T09:54:16;9.48;;;5.90;;
3953;SDS011;1991;48.682;9.030;2023-06-22T09:56:41;9.75;;;5.72;;
3953;SDS011;1991;48.682;9.030;2023-06-22T09:59:07;12.43;;;6.07;;
3953;SDS011;1991;48.682;9.030;2023-06-22T10:01:32;12.35;;;6.07;;
3953;SDS011;1991;48.682;9.030;2023-06-22T10:03:58;10.48;;;5.90;;
3953;SDS011;1991;48.682;9.030;2023-06-22T10:06:23;8.68;;;5.93;;
3953;SDS011;1991;48.682;9.030;2023-06-22T10:08:50;17.15;;;6.63;;
3953;SDS011;1991;48.682;9.030;2023-06-22T10:11:16;12.63;;;5.90;;
3953;SDS011;1991;48.682;9.030;2023-06-22T10:13:42;12.68;;;6.38;;
3953;SDS011;1991;48.682;9.030;2023-06-22T10:16:08;11.88;;;5.65;;
3953;SDS011;1991;48.682;9.030;2023-06-22T10:18:33;12.35;;;6.28;;
3953;SDS011;1991;48.682;9.030;2023-06-22T10:20:59;13.15;;;6.22;;
3953;SDS011;1991;48.682;9.030;2023-06-22T10:23:25;14.32;;;5.60;;
3953;SDS011;1991;48.682;9.030;2023-06-22T10:25:51;13.57;;;6.53;;
3953;SDS011;1991;48.682;9.030;2023-06-22T10:28:16;10.60;;;5.72;;
3953;SDS011;1991;48.682;9.030;2023-06-22T10:30:42;9.80;;;5.50;;
3953;SDS011;1991;48.682;9.030;2023-06-22T10:33:08;9.45;;;6.07;;
3953;SDS011;1991;48.682;9.030;2023-06-22T10:35:35;13.07;;;6.13;;
3953;SDS011;1991;48.682;9.030;2023-06-22T10:38:02;11.27;;;6.80;;
3953;SDS011;1991;48.682;9.030;2023-06-22T10:40:28;11.98;;;6.70;;
3953;SDS011;1991;48.682;9.030;2023-06-22T10:42:54;14.15;;;5.63;;
3953;SDS011;1991;48.682;9.030;2023-06-22T10:45:20;13.13;;;5.80;;
3953;SDS011;1991;48.682;9.030;2023-06-22T10:47:46;12.63;;;5.63;;
3953;SDS011;1991;48.682;9.030;2023-06-22T10:50:11;13.93;;;5.82;;
3953;SDS011;1991;48.682;9.030;2023-06-22T10:52:37;12.15;;;5.75;;
3953;SDS011;1991;48.682;9.030;2023-06-22T10:55:03;14.85;;;5.97;;
3953;SDS011;1991;48.682;9.030;2023-06-22T10:57:29;16.25;;;6.32;;
3953;SDS011;1991;48.682;9.030;2023-06-22T10:59:55;18.33;;;6.15;;
3953;SDS011;1991;48.682;9.030;2023-06-22T11:02:20;10.75;;;5.88;;
3953;SDS011;1991;48.682;9.030;2023-06-22T11:04:46;11.15;;;6.25;;
3953;SDS011;1991;48.682;9.030;2023-06-22T11:07:12;11.48;;;6.15;;
3953;SDS011;1991;48.682;9.030;2023-06-22T11:09:38;13.15;;;6.20;;
3953;SDS011;1991;48.682;9.030;2023-06-22T11:12:04;12.50;;;6.13;;
3953;SDS011;1991;48.682;9.030;2023-06-22T11:14:30;9.95;;;5.70;;
3953;SDS011;1991;48.682;9.030;2023-06-22T11:16:56;12.57;;;5.63;;
3953;SDS011;1991;48.682;9.030;2023-06-22T11:19:22;13.85;;;5.95;;
3953;SDS011;1991;48.682;9.030;2023-06-22T11:21:47;12.23;;;6.50;;
3953;SDS011;1991;48.682;9.030;2023-06-22T11:24:13;13.40;;;6.45;;
3953;SDS011;1991;48.682;9.030;2023-06-22T11:26:38;10.93;;;5.47;;
3953;SDS011;1991;48.682;9.030;2023-06-22T11:29:04;12.70;;;5.65;;
3953;SDS011;1991;48.682;9.030;2023-06-22T11:31:30;11.52;;;6.18;;
3953;SDS011;1991;48.682;9.030;2023-06-22T11:33:57;16.92;;;6.20;;
3953;SDS011;1991;48.682;9.030;2023-06-22T11:36:23;11.70;;;5.78;;
3953;SDS011;1991;48.682;9.030;2023-06-22T11:38:48;15.75;;;6.28;;
3953;SDS011;1991;48.682;9.030;2023-06-22T11:41:14;11.20;;;5.85;;
3953;SDS011;1991;48.682;9.030;2023-06-22T11:43:39;12.90;;;6.30;;
3953;SDS011;1991;48.682;9.030;2023-06-22T11:46:05;13.88;;;6.38;;
3953;SDS011;1991;48.682;9.030;2023-06-22T11:48:31;17.55;;;6.90;;
3953;SDS011;1991;48.682;9.030;2023-06-22T11:50:57;12.00;;;6.60;;
3953;SDS011;1991;48.682;9.030;2023-06-22T11:53:24;11.85;;;6.38;;
3953;SDS011;1991;48.682;9.030;2023-06-22T11:55:50;13.63;;;5.97;;
3953;SDS011;1991;48.682;9.030;2023-06-22T11:58:17;12.05;;;6.13;;
3953;SDS011;1991;48.682;9.030;2023-06-22T12:00:43;12.45;;;6.72;;
3953;SDS011;1991;48.682;9.030;2023-06-22T12:03:10;13.18;;;6.68;;
3953;SDS011;1991;48.682;9.030;2023-06-22T12:05:36;13.35;;;6.70;;
3953;SDS011;1991;48.682;9.030;2023-06-22T12:08:03;12.73;;;6.18;;
3953;SDS011;1991;48.682;9.030;2023-06-22T12:10:28;13.75;;;6.30;;
3953;SDS011;1991;48.682;9.030;2023-06-22T12:12:54;15.13;;;6.63;;
3953;SDS011;1991;48.682;9.030;2023-06-22T12:15:19;12.00;;;6.70;;
3953;SDS011;1991;48.682;9.030;2023-06-22T12:17:45;8.50;;;6.40;;
3953;SDS011;1991;48.682;9.030;2023-06-22T12:20:13;14.18;;;6.30;;
3953;SDS011;1991;48.682;9.030;2023-06-22T12:22:38;13.85;;;6.35;;
3953;SDS011;1991;48.682;9.030;2023-06-22T12:25:04;12.13;;;6.05;;
3953;SDS011;1991;48.682;9.030;2023-06-22T12:27:30;12.73;;;6.53;;
3953;SDS011;1991;48.682;9.030;2023-06-22T12:29:56;11.50;;;6.75;;
3953;SDS011;1991;48.682;9.030;2023-06-22T12:32:21;11.48;;;6.43;;
3953;SDS011;1991;48.682;9.030;2023-06-22T12:34:47;14.93;;;7.10;;
3953;SDS011;1991;48.682;9.030;2023-06-22T12:37:12;15.40;;;7.45;;
3953;SDS011;1991;48.682;9.030;2023-06-22T12:39:40;9.32;;;6.65;;
3953;SDS011;1991;48.682;9.030;2023-06-22T12:42:06;13.95;;;6.50;;
3953;SDS011;1991;48.682;9.030;2023-06-22T12:44:33;12.45;;;6.93;;
3953;SDS011;1991;48.682;9.030;2023-06-22T12:46:59;18.58;;;7.22;;
3953;SDS011;1991;48.682;9.030;2023-06-22T12:49:25;12.75;;;6.40;;
3953;SDS011;1991;48.682;9.030;2023-06-22T12:51:50;13.20;;;6.63;;
3953;SDS011;1991;48.682;9.030;2023-06-22T12:54:16;14.70;;;6.68;;
3953;SDS011;1991;48.682;9.030;2023-06-22T12:56:41;17.10;;;6.90;;
3953;SDS011;1991;48.682;9.030;2023-06-22T12:59:09;12.52;;;7.05;;
3953;SDS011;1991;48.682;9.030;2023-06-22T13:01:35;12.85;;;6.63;;
3953;SDS011;1991;48.682;9.030;2023-06-22T13:04:02;11.45;;;6.82;;
3953;SDS011;1991;48.682;9.030;2023-06-22T13:06:27;16.48;;;6.63;;
3953;SDS011;1991;48.682;9.030;2023-06-22T13:08:53;16.90;;;6.60;;
3953;SDS011;1991;48.682;9.030;2023-06-22T13:11:19;12.80;;;6.78;;
3953;SDS011;1991;48.682;9.030;2023-06-22T13:13:45;14.23;;;6.78;;
3953;SDS011;1991;48.682;9.030;2023-06-22T13:16:11;13.07;;;6.60;;
3953;SDS011;1991;48.682;9.030;2023-06-22T13:18:36;12.55;;;6.03;;
3953;SDS011;1991;48.682;9.030;2023-06-22T13:21:02;9.75;;;6.18;;
3953;SDS011;1991;48.682;9.030;2023-06-22T13:23:28;10.35;;;6.13;;
3953;SDS011;1991;48.682;9.030;2023-06-22T13:25:54;13.75;;;6.10;;
3953;SDS011;1991;48.682;9.030;2023-06-22T13:28:19;21.83;;;6.85;;
3953;SDS011;1991;48.682;9.030;2023-06-22T13:30:46;11.85;;;6.28;;
3953;SDS011;1991;48.682;9.030;2023-06-22T13:33:15;12.82;;;6.43;;
3953;SDS011;1991;48.682;9.030;2023-06-22T13:35:41;13.90;;;6.28;;
3953;SDS011;1991;48.682;9.030;2023-06-22T13:38:10;11.68;;;6.03;;
3953;SDS011;1991;48.682;9.030;2023-06-22T13:40:36;14.90;;;5.75;;
3953;SDS011;1991;48.682;9.030;2023-06-22T13:43:05;11.93;;;6.30;;
3953;SDS011;1991;48.682;9.030;2023-06-22T13:45:30;11.45;;;6.53;;
3953;SDS011;1991;48.682;9.030;2023-06-22T13:47:56;10.80;;;5.75;;
3953;SDS011;1991;48.682;9.030;2023-06-22T13:50:22;10.93;;;5.60;;
3953;SDS011;1991;48.682;9.030;2023-06-22T13:52:47;11.82;;;6.32;;
3953;SDS011;1991;48.682;9.030;2023-06-22T13:55:13;14.90;;;6.05;;
3953;SDS011;1991;48.682;9.030;2023-06-22T13:57:39;15.52;;;6.18;;
3953;SDS011;1991;48.682;9.030;2023-06-22T14:00:05;13.60;;;6.20;;
3953;SDS011;1991;48.682;9.030;2023-06-22T14:02:33;11.18;;;6.32;;
3953;SDS011;1991;48.682;9.030;2023-06-22T14:04:58;13.77;;;6.20;;
3953;SDS011;1991;48.682;9.030;2023-06-22T14:07:24;11.25;;;5.65;;
3953;SDS011;1991;48.682;9.030;2023-06-22T14:09:50;11.68;;;6.15;;
3953;SDS011;1991;48.682;9.030;2023-06-22T14:12:15;14.90;;;6.35;;
3953;SDS011;1991;48.682;9.030;2023-06-22T14:14:42;10.70;;;5.65;;
3953;SDS011;1991;48.682;9.030;2023-06-22T14:17:08;12.63;;;6.25;;
3953;SDS011;1991;48.682;9.030;2023-06-22T14:19:34;14.82;;;5.68;;
3953;SDS011;1991;48.682;9.030;2023-06-22T14:22:00;17.55;;;5.25;;
3953;SDS011;1991;48.682;9.030;2023-06-22T14:24:26;13.95;;;5.28;;
3953;SDS011;1991;48.682;9.030;2023-06-22T14:26:52;13.98;;;4.93;;
3953;SDS011;1991;48.682;9.030;2023-06-22T14:29:17;18.15;;;4.53;;
3953;SDS011;1991;48.682;9.030;2023-06-22T14:31:46;12.07;;;4.38;;
3953;SDS011;1991;48.682;9.030;2023-06-22T14:34:13;11.13;;;3.90;;
3953;SDS011;1991;48.682;9.030;2023-06-22T14:36:40;15.05;;;4.53;;
3953;SDS011;1991;48.682;9.030;2023-06-22T14:39:05;17.40;;;4.65;;
3953;SDS011;1991;48.682;9.030;2023-06-22T14:41:31;13.57;;;3.55;;
3953;SDS011;1991;48.682;9.030;2023-06-22T14:43:57;11.00;;;4.00;;
3953;SDS011;1991;48.682;9.030;2023-06-22T14:46:22;13.48;;;4.25;;
3953;SDS011;1991;48.682;9.030;2023-06-22T14:48:48;12.82;;;3.72;;
3953;SDS011;1991;48.682;9.030;2023-06-22T14:51:14;15.00;;;4.10;;
3953;SDS011;1991;48.682;9.030;2023-06-22T14:53:40;11.27;;;3.42;;
3953;SDS011;1991;48.682;9.030;2023-06-22T14:56:06;15.68;;;3.95;;
3953;SDS011;1991;48.682;9.030;2023-06-22T14:58:33;14.45;;;4.35;;
3953;SDS011;1991;48.682;9.030;2023-06-22T15:00:59;13.57;;;4.07;;
3953;SDS011;1991;48.682;9.030;2023-06-22T15:03:25;18.90;;;4.00;;
3953;SDS011;1991;48.682;9.030;2023-06-22T15:05:53;10.00;;;4.28;;
3953;SDS011;1991;48.682;9.030;2023-06-22T15:08:20;14.02;;;4.65;;